Time;durP1;ratioP1;P1;durP2;ratioP2;P2;SDS_P1;SDS_P2;PMS_P1;PMS_P2;Temp;Humidity;BMP_temperature;BMP_pressure;BME280_temperature;BME280_humidity;BME280_pressure;Samples;Min_cycle;Max_cycle;Signal;HPM_P1;HPM_P2
2022/06/29 00:00:26;;;;;;;5.85;2.50;;;15.50;99.90;;;;;;4986101;28;20077;-75
2022/06/29 00:02:52;;;;;;;4.65;2.20;;;15.50;99.90;;;;;;5001900;28;20038;-76
2022/06/29 00:05:21;;;;;;;4.72;2.33;;;15.40;99.90;;;;;;5000903;28;20062;-76
2022/06/29 00:07:49;;;;;;;4.70;2.37;;;15.40;99.90;;;;;;5003151;28;20045;-76
2022/06/29 00:10:15;;;;;;;5.50;2.40;;;15.40;99.90;;;;;;5000931;28;20096;-76
2022/06/29 00:12:43;;;;;;;5.72;2.50;;;15.40;99.90;;;;;;5002421;28;20046;-76
2022/06/29 00:15:09;;;;;;;7.93;2.75;;;15.40;99.90;;;;;;4985484;28;20034;-76
2022/06/29 00:17:35;;;;;;;5.32;2.28;;;15.40;99.90;;;;;;5002781;28;20072;-76
2022/06/29 00:20:04;;;;;;;6.60;2.55;;;15.40;99.90;;;;;;4985815;28;20495;-76
2022/06/29 00:22:29;;;;;;;5.00;2.70;;;15.40;99.90;;;;;;5001958;28;20045;-77
2022/06/29 00:24:55;;;;;;;5.03;2.78;;;15.50;99.90;;;;;;5002426;28;20392;-76
2022/06/29 00:27:22;;;;;;;7.10;3.03;;;15.40;99.90;;;;;;4985964;28;20038;-76
2022/06/29 00:29:48;;;;;;;5.35;2.72;;;15.40;99.90;;;;;;5002186;28;20046;-76
2022/06/29 00:32:14;;;;;;;5.13;2.85;;;15.40;99.90;;;;;;5001645;28;20038;-75
2022/06/29 00:34:40;;;;;;;7.32;2.60;;;15.40;99.90;;;;;;4983855;28;20111;-76
2022/06/29 00:37:06;;;;;;;5.72;3.10;;;15.40;99.90;;;;;;4969949;28;20074;-75
2022/06/29 00:39:32;;;;;;;5.10;2.90;;;15.40;99.90;;;;;;5001106;28;20092;-76
2022/06/29 00:41:58;;;;;;;4.47;2.85;;;15.40;99.90;;;;;;4984282;28;20100;-76
2022/06/29 00:44:24;;;;;;;4.60;3.05;;;15.40;99.90;;;;;;4985527;28;20046;-75
2022/06/29 00:46:58;;;;;;;5.55;3.10;;;15.40;99.90;;;;;;5001001;28;20046;-75
2022/06/29 00:49:26;;;;;;;5.75;3.25;;;15.30;99.90;;;;;;5000842;28;20433;-76
2022/06/29 00:52:07;;;;;;;5.45;3.15;;;15.30;99.90;;;;;;5001503;28;20038;-76
2022/06/29 00:54:39;;;;;;;5.03;3.35;;;15.30;99.90;;;;;;4986076;28;20046;-76
2022/06/29 00:57:17;;;;;;;5.45;3.42;;;15.20;99.90;;;;;;4996255;28;20050;-75
2022/06/29 00:59:52;;;;;;;5.80;2.80;;;15.20;99.90;;;;;;5001654;28;20568;-76
2022/06/29 01:02:23;;;;;;;6.10;3.58;;;15.10;99.90;;;;;;5002058;28;20441;-76
2022/06/29 01:04:50;;;;;;;6.20;3.60;;;15.10;99.90;;;;;;5001570;28;20078;-76
2022/06/29 01:07:23;;;;;;;5.57;3.22;;;15.10;99.90;;;;;;5001795;28;20081;-75
2022/06/29 01:09:49;;;;;;;6.07;3.22;;;15.00;99.90;;;;;;4999581;28;20048;-76
2022/06/29 01:12:15;;;;;;;6.03;3.50;;;15.00;99.90;;;;;;5000452;28;20184;-76
2022/06/29 01:14:45;;;;;;;5.82;3.92;;;15.00;99.90;;;;;;4983920;28;20096;-76
2022/06/29 01:17:12;;;;;;;5.15;3.85;;;15.00;99.90;;;;;;4966468;28;20038;-76
2022/06/29 01:19:39;;;;;;;6.07;4.00;;;14.90;99.90;;;;;;4972313;28;20053;-76
2022/06/29 01:22:08;;;;;;;5.88;3.55;;;14.90;99.90;;;;;;4985499;28;20464;-76
2022/06/29 01:24:34;;;;;;;4.20;3.42;;;14.80;99.90;;;;;;4982333;28;20144;-75
2022/06/29 01:26:59;;;;;;;7.68;4.30;;;14.80;99.90;;;;;;4984486;28;20117;-76
2022/06/29 01:29:27;;;;;;;5.85;3.78;;;14.80;99.90;;;;;;5000816;28;20038;-76
2022/06/29 01:31:57;;;;;;;7.25;4.50;;;14.80;99.90;;;;;;4982783;28;20620;-76
2022/06/29 01:34:24;;;;;;;5.40;3.83;;;14.80;99.90;;;;;;4977153;28;20065;-75
2022/06/29 01:36:50;;;;;;;5.78;3.85;;;14.70;99.90;;;;;;4980825;28;20045;-76
2022/06/29 01:39:16;;;;;;;6.55;4.40;;;14.70;99.90;;;;;;4999776;28;20037;-76
2022/06/29 01:41:42;;;;;;;8.43;4.53;;;14.80;99.90;;;;;;4984504;28;20042;-76
2022/06/29 01:44:08;;;;;;;9.57;4.55;;;14.80;99.90;;;;;;4999574;28;20681;-76
2022/06/29 01:46:34;;;;;;;6.25;4.95;;;14.80;99.90;;;;;;4967127;28;20058;-76
2022/06/29 01:49:00;;;;;;;6.47;4.25;;;14.80;99.90;;;;;;4968799;28;20065;-76
2022/06/29 01:51:26;;;;;;;9.10;4.75;;;14.80;99.90;;;;;;4968455;28;20124;-76
2022/06/29 01:53:52;;;;;;;6.13;4.95;;;14.80;99.90;;;;;;4983019;28;20625;-76
2022/06/29 01:56:20;;;;;;;6.60;4.18;;;14.80;99.90;;;;;;4984087;28;20042;-76
2022/06/29 01:58:47;;;;;;;6.43;5.25;;;14.90;99.90;;;;;;4984333;28;20038;-76
2022/06/29 02:01:14;;;;;;;7.70;4.90;;;14.80;99.90;;;;;;4983836;28;20058;-76
2022/06/29 02:03:43;;;;;;;6.80;4.68;;;14.80;99.90;;;;;;4984635;28;20049;-76
2022/06/29 02:06:08;;;;;;;6.40;4.80;;;14.90;99.90;;;;;;5001980;28;20049;-76
2022/06/29 02:08:34;;;;;;;6.53;4.70;;;14.90;99.90;;;;;;4983822;28;20049;-77
2022/06/29 02:11:00;;;;;;;5.72;4.68;;;14.90;99.90;;;;;;5001194;28;20053;-76
2022/06/29 02:13:27;;;;;;;6.55;4.70;;;15.00;99.90;;;;;;4985746;28;20034;-76
2022/06/29 02:15:53;;;;;;;7.07;4.28;;;15.00;99.90;;;;;;5000383;28;20049;-76
2022/06/29 02:18:19;;;;;;;6.63;5.22;;;15.00;99.90;;;;;;4966661;28;20042;-76
2022/06/29 02:20:45;;;;;;;5.88;4.50;;;15.00;99.90;;;;;;4984086;28;20436;-76
2022/06/29 02:23:11;;;;;;;6.18;4.70;;;15.00;99.90;;;;;;4982580;28;20042;-76
2022/06/29 02:25:37;;;;;;;6.47;4.60;;;15.00;99.90;;;;;;4985519;28;21055;-76
2022/06/29 02:28:04;;;;;;;7.07;4.60;;;15.10;99.90;;;;;;4960982;28;20041;-76
2022/06/29 02:35:58;;;;;;;9.15;4.40;;;15.10;99.90;;;;;;5000088;28;20049;-76
2022/06/29 02:38:23;;;;;;;5.43;4.80;;;15.10;99.90;;;;;;5000024;28;20925;-76
2022/06/29 02:40:49;;;;;;;6.82;4.95;;;15.00;99.90;;;;;;4983688;28;20396;-76
2022/06/29 02:43:15;;;;;;;6.22;4.80;;;15.10;99.90;;;;;;5002746;28;20133;-76
2022/06/29 02:45:41;;;;;;;6.78;5.60;;;15.10;99.90;;;;;;4981001;28;20073;-76
2022/06/29 02:48:07;;;;;;;6.22;4.93;;;15.10;99.90;;;;;;5001046;28;20045;-76
2022/06/29 02:50:33;;;;;;;5.82;4.82;;;15.10;99.90;;;;;;4966180;28;20104;-76
2022/06/29 02:52:59;;;;;;;8.45;5.45;;;15.10;99.90;;;;;;5000569;28;20037;-76
2022/06/29 02:55:25;;;;;;;6.47;5.20;;;15.20;99.90;;;;;;4985139;28;20089;-76
2022/06/29 02:57:50;;;;;;;6.78;5.28;;;15.20;99.90;;;;;;4987855;28;20054;-76
2022/06/29 03:00:17;;;;;;;6.03;5.43;;;15.10;99.90;;;;;;4971052;28;20073;-76
2022/06/29 03:02:43;;;;;;;6.50;5.00;;;15.20;99.90;;;;;;4987680;28;20046;-76
2022/06/29 03:05:09;;;;;;;6.50;5.65;;;15.10;99.90;;;;;;4987565;28;20085;-76
2022/06/29 03:07:35;;;;;;;6.45;5.57;;;15.10;99.90;;;;;;4984026;28;20049;-76
2022/06/29 03:10:01;;;;;;;6.18;5.57;;;15.10;99.90;;;;;;4970911;28;20133;-76
2022/06/29 03:12:27;;;;;;;5.95;5.35;;;15.10;99.90;;;;;;4969443;28;20034;-76
2022/06/29 03:14:53;;;;;;;7.00;5.93;;;15.00;99.90;;;;;;4970593;28;20045;-76
2022/06/29 03:17:19;;;;;;;6.15;5.55;;;15.00;99.90;;;;;;5003057;28;20038;-76
2022/06/29 03:19:45;;;;;;;6.15;5.55;;;14.90;99.90;;;;;;5003029;28;20508;-75
2022/06/29 03:22:11;;;;;;;6.57;5.72;;;14.90;99.90;;;;;;4970487;28;20044;-76
2022/06/29 03:24:36;;;;;;;6.85;5.47;;;14.90;99.90;;;;;;4980799;28;20054;-76
2022/06/29 03:27:02;;;;;;;6.55;5.60;;;14.80;99.90;;;;;;4981537;28;20045;-76
2022/06/29 03:29:28;;;;;;;6.63;5.65;;;14.80;99.90;;;;;;4954834;28;20068;-76
2022/06/29 03:31:54;;;;;;;6.28;5.68;;;14.80;99.90;;;;;;4998059;28;20046;-76
2022/06/29 03:34:20;;;;;;;6.32;5.68;;;14.80;99.90;;;;;;5002711;28;20699;-76
2022/06/29 03:36:46;;;;;;;7.43;6.28;;;14.80;99.90;;;;;;5003248;28;20115;-75
2022/06/29 03:39:12;;;;;;;7.68;5.70;;;14.70;99.90;;;;;;5003955;28;20050;-76
2022/06/29 03:41:38;;;;;;;7.07;5.88;;;14.70;99.90;;;;;;4988041;28;20073;-76
2022/06/29 03:44:04;;;;;;;6.28;5.68;;;14.70;99.90;;;;;;4973676;28;20058;-76
2022/06/29 03:46:30;;;;;;;6.53;5.80;;;14.60;99.90;;;;;;5005634;28;20417;-75
2022/06/29 03:48:56;;;;;;;6.70;6.00;;;14.60;99.90;;;;;;4974128;28;20056;-76
2022/06/29 03:51:21;;;;;;;8.38;6.20;;;14.60;99.90;;;;;;4974276;28;20048;-76
2022/06/29 03:53:51;;;;;;;7.35;6.47;;;14.60;99.90;;;;;;4990277;28;20042;-76
2022/06/29 03:56:20;;;;;;;7.13;5.88;;;14.60;99.90;;;;;;4985873;28;20045;-76
2022/06/29 03:58:46;;;;;;;6.97;6.35;;;14.60;99.90;;;;;;4985535;28;20148;-76
2022/06/29 04:01:12;;;;;;;6.97;6.38;;;14.60;99.90;;;;;;4992350;28;20049;-76
2022/06/29 04:03:41;;;;;;;7.47;6.68;;;14.60;99.90;;;;;;5002679;28;20045;-76
2022/06/29 04:06:07;;;;;;;7.50;6.25;;;14.70;99.90;;;;;;5006720;28;20061;-76
2022/06/29 04:08:35;;;;;;;6.75;6.10;;;14.70;99.90;;;;;;4990367;28;20053;-76
2022/06/29 04:11:01;;;;;;;6.38;5.60;;;14.70;99.90;;;;;;4973285;28;20125;-76
2022/06/29 04:13:27;;;;;;;6.82;6.15;;;14.80;99.90;;;;;;4990769;28;20235;-76
2022/06/29 04:15:53;;;;;;;7.10;6.03;;;14.90;99.90;;;;;;4968754;28;20046;-76
2022/06/29 04:18:19;;;;;;;5.63;5.07;;;14.90;99.90;;;;;;4993231;28;20046;-76
2022/06/29 04:23:28;;;;;;;6.70;5.65;;;15.00;99.90;;;;;;4992659;28;20054;-76
2022/06/29 04:25:54;;;;;;;6.85;5.57;;;15.10;99.90;;;;;;4988817;28;20741;-76
2022/06/29 04:28:20;;;;;;;6.93;5.40;;;15.20;99.90;;;;;;4980127;28;20084;-76
2022/06/29 04:30:46;;;;;;;7.72;5.35;;;15.20;99.90;;;;;;4999519;28;20054;-76
2022/06/29 04:33:12;;;;;;;7.18;6.25;;;15.30;99.90;;;;;;5005221;28;20038;-76
2022/06/29 04:35:37;;;;;;;7.10;5.85;;;15.30;99.90;;;;;;4971249;28;20107;-75
2022/06/29 04:38:03;;;;;;;8.90;5.45;;;15.40;99.90;;;;;;4990049;28;20672;-75
2022/06/29 04:40:29;;;;;;;7.13;5.57;;;15.40;99.90;;;;;;5005176;28;20042;-76
2022/06/29 04:42:55;;;;;;;9.32;5.32;;;15.50;99.90;;;;;;5005619;28;20080;-76
2022/06/29 04:48:05;;;;;;;7.15;5.22;;;15.70;99.90;;;;;;5006220;28;20054;-74
2022/06/29 04:50:31;;;;;;;9.45;5.53;;;15.70;99.90;;;;;;5004345;28;20064;-74
2022/06/29 04:52:57;;;;;;;6.13;5.18;;;15.70;99.90;;;;;;5004758;28;20041;-75
2022/06/29 04:55:25;;;;;;;5.38;4.65;;;15.80;99.90;;;;;;4984414;28;20565;-76
2022/06/29 04:57:51;;;;;;;6.95;5.40;;;15.80;99.90;;;;;;4972418;28;20497;-75
2022/06/29 05:00:17;;;;;;;7.82;5.35;;;15.80;99.90;;;;;;4988237;28;20073;-76
2022/06/29 05:02:43;;;;;;;6.50;5.32;;;15.90;99.90;;;;;;4989773;28;20053;-76
2022/06/29 05:05:09;;;;;;;8.05;4.88;;;15.90;99.90;;;;;;4970094;28;20117;-75
2022/06/29 05:07:35;;;;;;;5.38;4.55;;;15.90;99.90;;;;;;4987638;28;20742;-76
2022/06/29 05:10:01;;;;;;;6.38;5.15;;;16.00;99.90;;;;;;4973257;28;20046;-75
2022/06/29 05:12:27;;;;;;;7.80;4.80;;;16.00;99.90;;;;;;4987753;28;20041;-76
2022/06/29 05:14:52;;;;;;;7.85;5.60;;;16.10;99.90;;;;;;5004140;28;20084;-75
2022/06/29 05:17:18;;;;;;;6.47;4.75;;;16.10;99.90;;;;;;4981784;28;20416;-75
2022/06/29 05:19:44;;;;;;;6.72;5.35;;;16.20;99.90;;;;;;4983533;28;20046;-75
2022/06/29 05:22:10;;;;;;;7.55;5.13;;;16.20;99.90;;;;;;4983729;28;20091;-74
2022/06/29 05:24:36;;;;;;;7.03;4.68;;;16.30;99.90;;;;;;4982005;28;20054;-75
2022/06/29 05:27:02;;;;;;;7.43;4.72;;;16.30;99.90;;;;;;4970545;28;20057;-75
2022/06/29 05:29:27;;;;;;;5.72;4.55;;;16.40;99.90;;;;;;4986214;28;21039;-75
2022/06/29 05:31:53;;;;;;;6.32;4.70;;;16.40;99.90;;;;;;4983534;28;20068;-75
2022/06/29 05:34:19;;;;;;;7.47;4.43;;;16.50;99.90;;;;;;4987164;28;20045;-75
2022/06/29 05:36:48;;;;;;;6.18;4.38;;;16.50;99.90;;;;;;4983672;28;20095;-75
2022/06/29 05:39:14;;;;;;;5.70;4.57;;;16.60;99.90;;;;;;5000293;28;20038;-76
2022/06/29 05:41:40;;;;;;;6.25;4.40;;;16.70;99.90;;;;;;4965458;28;20732;-71
2022/06/29 05:44:05;;;;;;;4.72;4.20;;;16.80;99.90;;;;;;4998943;28;20058;-72
2022/06/29 05:46:32;;;;;;;5.78;3.90;;;16.90;99.90;;;;;;5001254;28;20061;-72
2022/06/29 05:48:58;;;;;;;5.80;3.75;;;16.90;99.90;;;;;;4968108;28;20034;-72
2022/06/29 05:51:24;;;;;;;6.55;3.78;;;17.00;99.90;;;;;;5000387;28;20049;-72
2022/06/29 05:53:50;;;;;;;5.55;4.15;;;17.10;99.90;;;;;;4981961;28;20041;-71
2022/06/29 05:56:16;;;;;;;7.25;3.53;;;17.20;99.90;;;;;;4986305;28;20034;-71
2022/06/29 05:58:42;;;;;;;6.55;3.67;;;17.20;99.90;;;;;;4985907;28;20045;-72
2022/06/29 06:01:09;;;;;;;6.00;3.97;;;17.30;99.90;;;;;;5002178;28;20050;-71
2022/06/29 06:03:36;;;;;;;4.93;3.55;;;17.40;99.90;;;;;;5001290;28;20050;-72
2022/06/29 06:06:02;;;;;;;4.78;3.42;;;17.50;99.90;;;;;;4984679;28;20064;-73
2022/06/29 06:08:28;;;;;;;6.00;3.45;;;17.60;99.90;;;;;;4966754;28;20045;-71
2022/06/29 06:10:54;;;;;;;4.45;3.78;;;17.60;99.90;;;;;;5001314;28;20077;-72
2022/06/29 06:13:20;;;;;;;5.90;3.58;;;17.70;99.90;;;;;;5001201;28;20038;-72
2022/06/29 06:15:47;;;;;;;5.30;3.28;;;17.80;99.90;;;;;;4984700;28;20532;-71
2022/06/29 06:18:15;;;;;;;5.03;3.92;;;17.80;99.90;;;;;;4985455;28;20045;-71
2022/06/29 06:20:41;;;;;;;3.97;3.13;;;17.90;99.90;;;;;;5000930;28;20064;-71
2022/06/29 06:23:07;;;;;;;5.15;3.65;;;18.00;99.90;;;;;;4984140;28;20046;-70
2022/06/29 06:25:33;;;;;;;5.15;3.58;;;18.00;99.90;;;;;;5001571;28;20046;-70
2022/06/29 06:28:00;;;;;;;4.63;3.28;;;18.10;99.90;;;;;;4983528;28;20401;-70
2022/06/29 06:30:26;;;;;;;5.35;3.95;;;18.20;99.90;;;;;;5002848;28;20038;-70
2022/06/29 06:32:52;;;;;;;6.05;3.78;;;18.20;99.90;;;;;;5000719;28;20045;-70
2022/06/29 06:35:19;;;;;;;3.83;3.17;;;18.30;99.90;;;;;;4985364;28;20080;-70
2022/06/29 06:37:46;;;;;;;4.43;2.97;;;18.30;99.90;;;;;;4982744;28;20042;-70
2022/06/29 06:42:56;;;;;;;5.50;3.45;;;18.50;99.90;;;;;;4999906;28;20456;-71
2022/06/29 06:45:23;;;;;;;7.35;3.63;;;18.70;99.90;;;;;;4985386;28;20046;-70
2022/06/29 06:47:49;;;;;;;6.03;3.40;;;18.80;99.90;;;;;;4986100;28;20046;-70
2022/06/29 06:50:15;;;;;;;6.43;3.28;;;18.90;99.90;;;;;;5001797;28;20715;-70
2022/06/29 06:52:41;;;;;;;4.03;2.97;;;19.00;99.90;;;;;;4985660;28;20115;-70
2022/06/29 06:55:07;;;;;;;5.25;2.90;;;19.10;99.90;;;;;;4985423;28;20043;-70
2022/06/29 06:57:33;;;;;;;5.30;3.10;;;19.20;99.90;;;;;;5000834;28;20042;-70
2022/06/29 06:59:59;;;;;;;5.50;3.25;;;19.30;99.90;;;;;;5001522;28;20042;-71
2022/06/29 07:02:24;;;;;;;5.07;3.42;;;19.40;99.90;;;;;;4955107;28;20060;-71
2022/06/29 07:04:50;;;;;;;5.97;3.00;;;19.50;99.90;;;;;;4985935;28;20081;-70
2022/06/29 07:07:17;;;;;;;4.25;2.70;;;19.60;99.90;;;;;;4999895;28;20120;-71
2022/06/29 07:09:42;;;;;;;3.10;2.42;;;19.70;99.90;;;;;;4985724;28;20050;-71
2022/06/29 07:12:08;;;;;;;6.93;3.22;;;19.90;99.90;;;;;;4985472;28;20670;-71
2022/06/29 07:14:34;;;;;;;4.45;2.70;;;20.00;99.90;;;;;;4971245;28;20089;-71
2022/06/29 07:17:00;;;;;;;5.72;2.53;;;20.20;99.90;;;;;;4989633;28;20508;-73
2022/06/29 07:19:25;;;;;;;4.10;2.83;;;20.30;99.90;;;;;;5006680;28;20049;-70
2022/06/29 07:21:51;;;;;;;5.35;2.45;;;20.40;99.90;;;;;;5005846;28;20053;-71
2022/06/29 07:24:20;;;;;;;6.22;3.13;;;20.50;99.90;;;;;;5004540;28;20594;-71
2022/06/29 07:26:45;;;;;;;5.50;2.40;;;20.70;99.90;;;;;;4973288;28;20501;-71
2022/06/29 07:29:11;;;;;;;4.93;2.30;;;20.80;99.90;;;;;;4986853;28;20065;-71
2022/06/29 07:31:37;;;;;;;5.30;2.65;;;20.90;99.90;;;;;;5006011;28;20157;-71
2022/06/29 07:34:04;;;;;;;4.93;2.20;;;21.00;99.90;;;;;;4972061;28;20049;-70
2022/06/29 07:36:30;;;;;;;5.05;2.30;;;21.20;99.90;;;;;;5004749;28;20046;-71
2022/06/29 07:38:56;;;;;;;4.05;2.40;;;21.30;99.90;;;;;;4989071;28;20049;-71
2022/06/29 07:41:22;;;;;;;8.23;2.30;;;21.50;99.90;;;;;;4988858;28;20113;-70
2022/06/29 07:43:48;;;;;;;4.75;2.00;;;21.60;99.90;;;;;;5003529;28;20046;-71
2022/06/29 07:46:14;;;;;;;4.50;2.33;;;21.80;99.90;;;;;;4988493;28;20061;-71
2022/06/29 07:48:40;;;;;;;2.78;1.90;;;21.90;99.90;;;;;;5004041;28;20042;-71
2022/06/29 07:51:05;;;;;;;2.85;1.67;;;22.00;99.90;;;;;;5004596;28;20046;-71
2022/06/29 07:53:31;;;;;;;3.15;1.95;;;22.10;99.90;;;;;;5004858;28;20049;-71
2022/06/29 07:55:57;;;;;;;3.15;1.90;;;22.30;99.90;;;;;;5004618;28;20076;-71
2022/06/29 07:58:24;;;;;;;4.35;1.75;;;22.40;99.90;;;;;;5003657;28;20045;-71
2022/06/29 08:00:49;;;;;;;2.67;1.75;;;22.50;99.90;;;;;;5005237;28;20069;-70
2022/06/29 08:03:15;;;;;;;4.55;2.28;;;22.70;99.90;;;;;;5004478;28;20493;-71
2022/06/29 08:05:41;;;;;;;6.25;1.80;;;22.80;99.90;;;;;;5004664;28;20045;-71
2022/06/29 08:08:08;;;;;;;4.00;1.90;;;22.90;99.90;;;;;;5004688;28;20347;-72
2022/06/29 08:10:34;;;;;;;3.47;1.63;;;22.90;99.90;;;;;;5004379;28;20041;-71
2022/06/29 08:13:00;;;;;;;4.38;1.55;;;22.90;99.30;;;;;;5003707;28;20069;-71
2022/06/29 08:15:28;;;;;;;3.97;1.75;;;22.80;97.70;;;;;;4985791;28;20070;-73
2022/06/29 08:17:53;;;;;;;2.20;1.60;;;22.70;98.80;;;;;;4988318;28;20057;-72
2022/06/29 08:20:20;;;;;;;3.47;1.90;;;22.70;97.80;;;;;;4987627;28;20370;-72
2022/06/29 08:22:47;;;;;;;3.15;1.60;;;22.60;98.20;;;;;;4988179;28;20046;-72
2022/06/29 08:25:13;;;;;;;3.95;1.63;;;22.60;99.30;;;;;;5003043;28;20053;-73
2022/06/29 08:27:39;;;;;;;3.85;2.08;;;22.60;99.90;;;;;;5004427;28;20053;-72
2022/06/29 08:30:07;;;;;;;6.05;2.17;;;22.70;99.50;;;;;;5005119;28;20088;-72
2022/06/29 08:32:33;;;;;;;4.30;2.10;;;22.70;99.90;;;;;;4987722;28;20052;-72
2022/06/29 08:35:00;;;;;;;4.10;2.15;;;22.70;99.90;;;;;;5003850;28;20042;-73
2022/06/29 08:37:27;;;;;;;4.03;1.90;;;22.70;99.90;;;;;;4988602;28;20042;-72
2022/06/29 08:39:53;;;;;;;3.45;1.63;;;22.80;99.90;;;;;;5003822;28;20073;-72
2022/06/29 08:42:22;;;;;;;5.90;2.10;;;23.00;99.90;;;;;;4985844;28;20041;-72
2022/06/29 08:44:49;;;;;;;3.90;1.85;;;23.20;99.90;;;;;;5001806;28;20065;-70
2022/06/29 08:47:15;;;;;;;4.03;2.22;;;23.50;99.90;;;;;;5004284;28;20058;-70
2022/06/29 08:49:43;;;;;;;3.00;1.75;;;23.70;99.90;;;;;;4988278;28;20123;-71
2022/06/29 08:52:10;;;;;;;5.07;1.65;;;23.90;99.90;;;;;;5004378;28;20160;-71
2022/06/29 08:54:40;;;;;;;3.38;1.90;;;24.10;97.80;;;;;;4988159;28;20641;-71
2022/06/29 08:57:06;;;;;;;2.60;1.55;;;24.00;97.50;;;;;;5003222;28;20107;-72
2022/06/29 08:59:34;;;;;;;4.18;1.90;;;24.00;98.40;;;;;;4985915;28;20070;-72
2022/06/29 09:02:00;;;;;;;2.28;1.67;;;24.00;99.30;;;;;;4987009;28;20046;-72
2022/06/29 09:04:26;;;;;;;3.22;1.80;;;24.00;99.40;;;;;;4986912;28;20038;-72
2022/06/29 09:06:54;;;;;;;3.88;1.70;;;24.10;96.90;;;;;;5003543;28;20045;-72
2022/06/29 09:09:20;;;;;;;8.50;1.77;;;24.00;95.60;;;;;;4986323;28;20137;-71
2022/06/29 09:11:46;;;;;;;4.22;2.00;;;24.00;96.00;;;;;;5003387;28;20042;-72
2022/06/29 09:14:17;;;;;;;4.25;1.88;;;23.90;95.60;;;;;;5002303;28;20177;-71
2022/06/29 09:16:54;;;;;;;3.00;1.70;;;23.90;97.00;;;;;;5003655;28;20392;-71
2022/06/29 09:19:22;;;;;;;3.80;1.65;;;24.00;99.00;;;;;;5002986;28;20135;-72
2022/06/29 09:21:49;;;;;;;6.75;1.80;;;24.20;99.70;;;;;;4987910;28;20041;-71
2022/06/29 09:24:38;;;;;;;2.83;1.63;;;24.40;98.30;;;;;;4987008;28;20041;-71
2022/06/29 09:27:09;;;;;;;3.28;2.08;;;24.60;93.20;;;;;;5001947;28;20044;-71
2022/06/29 09:29:39;;;;;;;4.05;1.90;;;24.90;92.00;;;;;;5002742;28;20571;-72
2022/06/29 09:32:05;;;;;;;3.65;1.92;;;24.90;91.60;;;;;;5003458;28;20043;-72
2022/06/29 09:34:39;;;;;;;3.95;1.60;;;25.10;91.20;;;;;;5003623;28;20065;-72
2022/06/29 09:37:07;;;;;;;3.38;1.60;;;25.30;91.10;;;;;;4988646;28;20050;-71
2022/06/29 09:39:47;;;;;;;3.47;2.05;;;25.50;89.20;;;;;;4985156;28;20076;-73
2022/06/29 09:42:15;;;;;;;4.82;1.75;;;25.60;85.90;;;;;;5003026;28;20610;-72
2022/06/29 09:44:42;;;;;;;3.25;1.95;;;25.70;85.90;;;;;;5002726;28;20420;-72
2022/06/29 09:47:12;;;;;;;3.78;1.95;;;25.90;84.20;;;;;;4986524;28;20038;-73
2022/06/29 09:49:38;;;;;;;4.05;1.95;;;26.00;81.80;;;;;;4985882;28;20092;-72
2022/06/29 09:52:06;;;;;;;3.55;1.60;;;26.10;82.80;;;;;;4987878;28;20038;-71
2022/06/29 09:54:47;;;;;;;3.83;1.60;;;26.20;78.90;;;;;;5002053;28;20077;-72
2022/06/29 09:57:16;;;;;;;4.68;1.70;;;26.30;79.30;;;;;;4986890;28;20045;-73
2022/06/29 10:02:35;;;;;;;2.55;1.65;;;26.40;79.60;;;;;;5002926;28;20552;-72
2022/06/29 10:05:04;;;;;;;4.20;2.10;;;26.50;76.70;;;;;;4985986;28;20504;-73
2022/06/29 10:07:31;;;;;;;3.47;2.00;;;26.50;72.40;;;;;;5001464;28;20073;-72
2022/06/29 10:09:58;;;;;;;3.22;1.80;;;26.40;73.40;;;;;;4986424;28;20554;-72
2022/06/29 10:16:00;;;;;;;4.72;2.00;;;26.20;75.20;;;;;;5002144;28;20061;-72
2022/06/29 10:18:26;;;;;;;3.83;2.00;;;26.10;78.20;;;;;;5003417;28;20116;-72
2022/06/29 10:20:52;;;;;;;3.85;2.17;;;26.10;81.60;;;;;;4984390;28;20046;-73
2022/06/29 10:23:50;;;;;;;3.10;1.92;;;26.10;81.70;;;;;;5002773;28;20042;-73
2022/06/29 10:26:28;;;;;;;4.70;1.90;;;26.30;81.30;;;;;;5002517;28;20042;-72
2022/06/29 10:29:23;;;;;;;4.03;1.88;;;26.60;81.30;;;;;;5002415;28;20095;-71
2022/06/29 10:31:51;;;;;;;4.43;1.85;;;26.80;75.80;;;;;;5000986;28;20528;-71
2022/06/29 10:35:06;;;;;;;5.90;1.97;;;27.00;78.00;;;;;;4983710;28;20042;-72
2022/06/29 10:37:24;;;;;;;5.28;2.55;;;27.00;79.40;;;;;;5000239;28;20077;-72
2022/06/29 10:39:51;;;;;;;5.07;2.03;;;27.10;76.30;;;;;;4984212;28;20506;-72
2022/06/29 10:45:20;;;;;;;2.83;1.90;;;27.00;76.30;;;;;;5000261;28;20097;-71
2022/06/29 10:48:12;;;;;;;4.55;2.30;;;26.90;73.60;;;;;;4999943;28;20196;-72
2022/06/29 10:50:39;;;;;;;2.83;1.90;;;26.80;75.00;;;;;;5007562;28;20521;-72
2022/06/29 10:53:10;;;;;;;4.50;2.30;;;26.90;79.60;;;;;;4987525;28;20057;-72
2022/06/29 10:55:40;;;;;;;4.20;2.20;;;27.00;76.30;;;;;;5003969;28;20092;-71
2022/06/29 10:58:06;;;;;;;4.10;2.50;;;27.10;74.40;;;;;;4992873;28;20061;-72
2022/06/29 11:00:41;;;;;;;5.30;2.00;;;27.20;74.50;;;;;;4987389;28;20535;-72
2022/06/29 11:03:12;;;;;;;5.07;2.30;;;27.10;69.00;;;;;;5003866;28;20050;-72
2022/06/29 11:12:01;;;;;;;2.72;1.95;;;26.90;68.70;;;;;;5003656;28;20107;-72
2022/06/29 11:13:57;;;;;;;3.75;2.10;;;27.00;75.20;;;;;;4989351;28;20054;-71
2022/06/29 11:16:28;;;;;;;3.28;2.20;;;27.10;72.40;;;;;;4989466;28;20112;-72
2022/06/29 11:18:56;;;;;;;4.85;2.10;;;27.20;69.00;;;;;;4984007;28;20052;-71
2022/06/29 11:21:22;;;;;;;3.70;1.83;;;27.40;69.00;;;;;;4992558;28;20045;-72
2022/06/29 11:24:05;;;;;;;7.57;2.40;;;27.40;66.00;;;;;;4990661;28;20050;-71
2022/06/29 11:26:33;;;;;;;3.55;2.00;;;27.30;64.70;;;;;;5018302;28;20057;-71
2022/06/29 11:29:00;;;;;;;4.65;1.95;;;27.20;65.20;;;;;;4989215;28;20049;-71
2022/06/29 11:31:26;;;;;;;2.92;1.90;;;27.00;63.90;;;;;;4986361;28;20048;-72
2022/06/29 11:33:53;;;;;;;2.58;1.88;;;26.90;68.10;;;;;;4989893;28;20124;-71
2022/06/29 11:36:32;;;;;;;3.83;2.45;;;26.70;71.20;;;;;;4991575;28;20041;-71
2022/06/29 11:39:04;;;;;;;3.85;3.08;;;26.70;72.10;;;;;;5004319;28;20038;-72
2022/06/29 11:44:28;;;;;;;5.25;2.40;;;26.70;77.10;;;;;;5005624;28;20107;-71
2022/06/29 11:46:54;;;;;;;;;;;26.70;73.70;;;;;;5004745;28;20073;-71
2022/06/29 11:49:39;;;;;;;3.33;2.80;;;26.70;76.80;;;;;;5008364;28;19929;-71
2022/06/29 11:52:12;;;;;;;3.25;2.67;;;26.60;75.20;;;;;;4988639;28;20056;-71
2022/06/29 11:54:47;;;;;;;3.65;2.90;;;26.60;74.70;;;;;;5005380;28;20053;-71
2022/06/29 11:57:21;;;;;;;4.63;3.10;;;26.50;77.50;;;;;;5006404;28;20058;-72
2022/06/29 11:59:48;;;;;;;3.30;2.67;;;26.50;80.70;;;;;;4987146;28;20088;-72
2022/06/29 12:02:16;;;;;;;4.70;2.78;;;26.60;81.20;;;;;;5000662;28;20156;-71
2022/06/29 12:04:44;;;;;;;4.22;3.15;;;26.80;79.50;;;;;;4987784;28;20182;-72
2022/06/29 12:07:12;;;;;;;5.20;2.75;;;27.00;80.80;;;;;;4982320;28;20500;-72
2022/06/29 12:09:39;;;;;;;4.60;2.95;;;27.20;77.70;;;;;;5004840;28;20708;-71
2022/06/29 12:12:07;;;;;;;5.15;3.53;;;27.40;78.70;;;;;;4989476;28;20104;-71
2022/06/29 12:14:34;;;;;;;5.00;3.50;;;27.50;76.50;;;;;;5006693;28;20046;-71
2022/06/29 12:17:00;;;;;;;4.18;3.03;;;27.60;74.30;;;;;;5005216;28;20508;-71
2022/06/29 12:19:26;;;;;;;4.40;3.20;;;27.60;77.30;;;;;;4990857;28;20072;-71
2022/06/29 12:21:53;;;;;;;7.82;3.45;;;27.70;76.80;;;;;;5004882;28;20132;-71
2022/06/29 12:24:20;;;;;;;5.03;3.38;;;27.70;76.30;;;;;;4988772;28;20053;-71
2022/06/29 12:26:46;;;;;;;5.88;2.83;;;27.80;74.60;;;;;;4972181;28;20046;-71
2022/06/29 12:29:13;;;;;;;6.82;3.55;;;27.90;77.90;;;;;;4980689;28;20574;-71
2022/06/29 12:31:41;;;;;;;4.63;3.80;;;27.90;75.30;;;;;;5005745;28;20042;-71
2022/06/29 12:34:07;;;;;;;6.80;3.50;;;27.80;72.40;;;;;;4989147;28;20569;-71
2022/06/29 12:36:34;;;;;;;4.63;3.13;;;27.80;73.40;;;;;;5001824;28;20069;-71
2022/06/29 12:38:59;;;;;;;4.53;3.28;;;27.80;76.50;;;;;;4986476;28;20053;-72
2022/06/29 12:41:26;;;;;;;4.88;3.60;;;27.80;77.80;;;;;;5005379;28;20042;-71
2022/06/29 12:43:52;;;;;;;6.20;3.67;;;28.00;75.40;;;;;;4983031;28;20046;-72
2022/06/29 12:46:18;;;;;;;5.35;3.50;;;28.00;75.20;;;;;;4970040;28;20103;-72
2022/06/29 12:48:44;;;;;;;4.55;3.53;;;28.10;76.30;;;;;;4987237;28;20481;-71
2022/06/29 12:51:09;;;;;;;5.15;3.92;;;28.10;78.10;;;;;;4973519;28;20648;-71
2022/06/29 12:53:36;;;;;;;6.65;4.13;;;28.20;77.30;;;;;;4991502;28;20057;-71
2022/06/29 12:56:03;;;;;;;6.20;3.92;;;28.30;79.40;;;;;;4988056;28;20038;-72
2022/06/29 12:58:29;;;;;;;6.60;4.47;;;28.40;78.00;;;;;;5002116;28;20042;-71
2022/06/29 13:00:54;;;;;;;7.40;4.20;;;28.40;75.00;;;;;;4990508;28;20439;-70
2022/06/29 13:03:42;;;;;;;5.32;3.80;;;28.30;72.60;;;;;;4987945;28;20701;-71
2022/06/29 13:06:08;;;;;;;7.25;3.78;;;28.40;74.90;;;;;;4987500;28;20046;-71
2022/06/29 13:08:34;;;;;;;5.50;4.30;;;28.40;76.20;;;;;;4985485;28;20119;-71
2022/06/29 13:11:01;;;;;;;6.45;4.03;;;28.40;72.60;;;;;;4999819;28;20050;-72
2022/06/29 13:13:28;;;;;;;6.07;4.20;;;28.40;73.80;;;;;;5001306;28;20500;-71
2022/06/29 13:15:53;;;;;;;6.18;3.85;;;28.40;73.70;;;;;;4983181;28;20128;-72
2022/06/29 13:18:19;;;;;;;4.70;3.78;;;28.50;74.00;;;;;;5001265;28;20488;-72
2022/06/29 13:20:45;;;;;;;6.63;3.50;;;28.60;74.30;;;;;;4985503;28;20056;-71